createdAt,value
2023-04-24T00:02:07.766Z,96753.53
2023-04-24T00:04:34.640Z,96763.41
2023-04-24T00:07:02.142Z,96755.06
2023-04-24T00:09:28.873Z,96750.28
2023-04-24T00:11:55.395Z,96759.63
2023-04-24T00:14:21.929Z,96754.47
2023-04-24T00:16:48.449Z,96752.63
2023-04-24T00:19:15.002Z,96744.22
2023-04-24T00:21:42.898Z,96741.34
2023-04-24T00:24:12.218Z,96742.22
2023-04-24T00:26:38.714Z,96731.97
2023-04-24T00:29:05.221Z,96748.03
2023-04-24T00:31:31.832Z,96742.44
2023-04-24T00:33:58.970Z,96740.81
2023-04-24T00:36:26.046Z,96745.91
2023-04-24T00:38:52.534Z,96742.13
2023-04-24T00:41:19.088Z,96747.84
2023-04-24T00:43:45.652Z,96747.84
2023-04-24T00:46:12.364Z,96754.97
2023-04-24T00:48:40.101Z,96750.84
2023-04-24T00:51:06.574Z,96754.63
2023-04-24T00:53:33.712Z,96750.00
2023-04-24T00:56:00.405Z,96754.13
2023-04-24T00:58:26.904Z,96747.13
2023-04-24T01:00:54.135Z,96754.00
2023-04-24T01:03:22.577Z,96748.84
2023-04-24T01:05:49.950Z,96740.31
2023-04-24T01:08:16.412Z,96744.13
2023-04-24T01:10:42.882Z,96742.53
2023-04-24T01:13:09.709Z,96741.28
2023-04-24T01:15:36.311Z,96739.38
2023-04-24T01:18:03.414Z,96736.34
2023-04-24T01:20:31.039Z,96727.66
2023-04-24T01:22:57.565Z,96737.13
2023-04-24T01:25:24.597Z,96743.81
2023-04-24T01:27:51.144Z,96736.16
2023-04-24T01:30:17.604Z,96735.22
2023-04-24T01:32:45.562Z,96746.22
2023-04-24T01:35:12.168Z,96743.81
2023-04-24T01:37:38.663Z,96735.84
2023-04-24T01:40:07.707Z,96745.44
2023-04-24T01:42:34.961Z,96737.66
2023-04-24T01:45:02.469Z,96745.38
2023-04-24T01:47:29.031Z,96748.94
2023-04-24T01:49:55.522Z,96745.06
2023-04-24T01:52:22.543Z,96749.78
2023-04-24T01:54:49.015Z,96745.50
2023-04-24T01:57:15.773Z,96737.53
2023-04-24T01:59:42.466Z,96731.63
2023-04-24T02:02:09.282Z,96729.91
2023-04-24T02:04:35.795Z,96726.56
2023-04-24T02:07:02.273Z,96721.09
2023-04-24T02:09:29.010Z,96716.06
2023-04-24T02:11:55.509Z,96717.69
2023-04-24T02:14:22.000Z,96728.00
2023-04-24T02:16:48.510Z,96717.06
2023-04-24T02:19:14.986Z,96715.16
2023-04-24T02:21:41.465Z,96704.47
2023-04-24T02:24:07.933Z,96710.41
2023-04-24T02:26:34.400Z,96717.13
2023-04-24T02:29:01.002Z,96712.47
2023-04-24T02:31:27.567Z,96707.72
2023-04-24T02:33:54.047Z,96705.44
2023-04-24T02:36:20.523Z,96704.41
2023-04-24T02:38:47.022Z,96697.41
2023-04-24T02:41:13.576Z,96698.16
2023-04-24T02:43:40.049Z,96700.59
2023-04-24T02:46:06.612Z,96696.44
2023-04-24T02:48:33.636Z,96699.22
2023-04-24T02:51:01.761Z,96690.59
2023-04-24T02:53:29.304Z,96695.38
2023-04-24T02:55:55.802Z,96694.56
2023-04-24T02:58:22.287Z,96684.66
2023-04-24T03:00:49.883Z,96692.16
2023-04-24T03:03:17.462Z,96682.31
2023-04-24T03:05:44.976Z,96681.09
2023-04-24T03:08:21.783Z,96680.78
2023-04-24T03:10:48.948Z,96678.78
2023-04-24T03:13:18.898Z,96680.78
2023-04-24T03:15:46.019Z,96675.56
2023-04-24T03:18:12.633Z,96684.94
2023-04-24T03:20:39.151Z,96679.06
2023-04-24T03:23:05.638Z,96680.56
2023-04-24T03:25:32.125Z,96684.13
2023-04-24T03:27:58.938Z,96686.09
2023-04-24T03:30:25.483Z,96684.22
2023-04-24T03:32:51.998Z,96681.44
2023-04-24T03:35:18.478Z,96688.53
2023-04-24T03:37:44.996Z,96671.88
2023-04-24T03:40:11.952Z,96675.41
2023-04-24T03:42:39.428Z,96675.00
2023-04-24T03:45:06.870Z,96672.56
2023-04-24T03:47:33.385Z,96678.47
2023-04-24T03:49:59.908Z,96675.16
2023-04-24T03:52:26.393Z,96680.94
2023-04-24T03:54:53.128Z,96692.91
2023-04-24T03:57:19.608Z,96679.91
2023-04-24T03:59:46.097Z,96677.13
2023-04-24T04:02:12.652Z,96662.50
2023-04-24T04:04:39.436Z,96674.84
2023-04-24T04:07:06.284Z,96673.34
2023-04-24T04:09:33.611Z,96683.25
2023-04-24T04:12:01.442Z,96684.84
2023-04-24T04:14:28.486Z,96687.19
2023-04-24T04:16:55.127Z,96688.69
2023-04-24T04:19:21.693Z,96689.16
2023-04-24T04:21:53.076Z,96696.38
2023-04-24T04:24:21.606Z,96691.56
2023-04-24T04:26:52.255Z,96686.06
2023-04-24T04:29:21.742Z,96689.22
2023-04-24T04:31:48.307Z,96694.75
2023-04-24T04:34:15.203Z,96693.94
2023-04-24T04:36:42.467Z,96689.75
2023-04-24T04:39:09.289Z,96695.28
2023-04-24T04:41:36.272Z,96698.09
2023-04-24T04:44:05.456Z,96692.50
2023-04-24T04:46:34.238Z,96705.53
2023-04-24T04:49:02.304Z,96709.81
2023-04-24T04:51:28.833Z,96709.03
2023-04-24T04:53:55.295Z,96719.44
2023-04-24T04:56:22.909Z,96722.53
2023-04-24T04:58:49.389Z,96716.94
2023-04-24T05:01:15.923Z,96721.72
2023-04-24T05:03:42.514Z,96748.59
2023-04-24T05:06:09.062Z,96736.69
2023-04-24T05:08:35.577Z,96740.47
2023-04-24T05:11:02.139Z,96743.97
2023-04-24T05:13:39.401Z,96737.53
2023-04-24T05:16:07.834Z,96738.34
2023-04-24T05:18:34.367Z,96726.38
2023-04-24T05:21:00.982Z,96725.22
2023-04-24T05:23:27.490Z,96739.53
2023-04-24T05:25:53.937Z,96742.19
2023-04-24T05:28:20.979Z,96752.13
2023-04-24T05:30:47.786Z,96758.94
2023-04-24T05:33:15.117Z,96758.94
2023-04-24T05:35:46.588Z,96745.59
2023-04-24T05:38:13.745Z,96753.47
2023-04-24T05:40:40.609Z,96745.22
2023-04-24T05:43:07.106Z,96742.69
2023-04-24T05:45:33.603Z,96741.53
2023-04-24T05:48:00.160Z,96744.34
2023-04-24T05:50:26.678Z,96750.63
2023-04-24T05:52:53.158Z,96730.75
2023-04-24T05:55:19.681Z,96731.53
2023-04-24T05:57:46.769Z,96736.25
2023-04-24T06:00:13.593Z,96731.97
2023-04-24T06:02:40.524Z,96741.72
2023-04-24T06:05:07.667Z,96734.50
2023-04-24T06:07:34.201Z,96744.44
2023-04-24T06:10:00.662Z,96742.53
2023-04-24T06:12:27.474Z,96752.75
2023-04-24T06:14:55.183Z,96749.19
2023-04-24T06:17:21.682Z,96742.50
2023-04-24T06:19:48.454Z,96750.06
2023-04-24T06:22:14.997Z,96755.66
2023-04-24T06:24:41.467Z,96760.84
2023-04-24T06:27:08.600Z,96750.91
2023-04-24T06:29:35.241Z,96752.59
2023-04-24T06:32:01.822Z,96756.41
2023-04-24T06:34:30.685Z,96747.91
2023-04-24T06:36:57.330Z,96750.38
2023-04-24T06:39:23.829Z,96754.41
2023-04-24T06:41:50.302Z,96756.38
2023-04-24T06:44:17.660Z,96752.69
2023-04-24T06:46:44.360Z,96756.22
2023-04-24T06:49:10.832Z,96757.38
2023-04-24T06:51:37.595Z,96746.69
2023-04-24T06:54:06.501Z,96755.00
2023-04-24T06:56:35.115Z,96756.69
2023-04-24T06:59:01.791Z,96763.03
2023-04-24T07:01:28.973Z,96756.09
2023-04-24T07:03:55.916Z,96758.06
2023-04-24T07:06:23.734Z,96752.88
2023-04-24T07:08:50.283Z,96772.28
2023-04-24T07:11:16.800Z,96758.81
2023-04-24T07:13:43.434Z,96747.31
2023-04-24T07:16:10.669Z,96761.53
2023-04-24T07:18:37.571Z,96767.56
2023-04-24T07:21:04.083Z,96761.56
2023-04-24T07:23:31.694Z,96760.28
2023-04-24T07:25:58.522Z,96767.84
2023-04-24T07:28:25.634Z,96766.34
2023-04-24T07:30:54.839Z,96767.06
2023-04-24T07:33:21.451Z,96772.94
2023-04-24T07:35:48.027Z,96783.00
2023-04-24T07:38:14.818Z,96781.81
2023-04-24T07:40:41.579Z,96781.56
2023-04-24T07:43:08.054Z,96771.91
2023-04-24T07:45:37.987Z,96792.50
2023-04-24T07:48:04.776Z,96776.81
2023-04-24T07:50:34.526Z,96782.53
2023-04-24T07:53:01.034Z,96779.25
2023-04-24T07:55:28.248Z,96787.72
2023-04-24T07:57:55.036Z,96788.44
2023-04-24T08:00:21.797Z,96793.91
2023-04-24T08:02:48.697Z,96785.75
2023-04-24T08:05:15.522Z,96794.53
2023-04-24T08:07:43.509Z,96793.75
2023-04-24T08:10:11.407Z,96794.63
2023-04-24T08:12:38.229Z,96796.66
2023-04-24T08:15:05.934Z,96790.22
2023-04-24T08:17:32.447Z,96791.44
2023-04-24T08:20:02.694Z,96786.22
2023-04-24T08:22:29.179Z,96795.69
2023-04-24T08:24:57.006Z,96796.56
2023-04-24T08:27:24.172Z,96799.16
2023-04-24T08:29:50.928Z,96804.00
2023-04-24T08:32:17.899Z,96799.59
2023-04-24T08:34:44.428Z,96798.06
2023-04-24T08:37:10.929Z,96807.22
2023-04-24T08:39:37.769Z,96798.97
2023-04-24T08:42:09.206Z,96795.41
2023-04-24T08:44:36.477Z,96810.84
2023-04-24T08:47:03.139Z,96803.34
2023-04-24T08:49:31.251Z,96795.44
2023-04-24T08:51:57.750Z,96802.53
2023-04-24T08:54:25.940Z,96802.16
2023-04-24T08:56:52.398Z,96801.25
2023-04-24T08:59:18.876Z,96801.56
2023-04-24T09:01:46.448Z,96789.66
2023-04-24T09:04:14.326Z,96802.00
2023-04-24T09:06:41.670Z,96802.41
2023-04-24T09:09:08.154Z,96810.69
2023-04-24T09:11:34.950Z,96812.69
2023-04-24T09:14:01.912Z,96805.16
2023-04-24T09:16:28.503Z,96809.25
2023-04-24T09:18:56.184Z,96808.56
2023-04-24T09:21:23.744Z,96813.69
2023-04-24T09:24:00.616Z,96800.91
2023-04-24T09:26:28.119Z,96819.06
2023-04-24T09:28:54.624Z,96813.53
2023-04-24T09:31:22.993Z,96815.41
2023-04-24T09:34:05.756Z,96811.59
2023-04-24T09:36:41.843Z,96812.00
2023-04-24T09:39:16.713Z,96798.38
2023-04-24T09:41:48.389Z,96804.41
2023-04-24T09:44:18.665Z,96806.31
2023-04-24T09:46:46.466Z,96809.63
2023-04-24T09:49:17.287Z,96798.53
2023-04-24T09:51:44.311Z,96812.09
2023-04-24T09:54:22.974Z,96802.16
2023-04-24T09:56:50.781Z,96805.78
2023-04-24T09:59:18.532Z,96818.78
2023-04-24T10:01:49.846Z,96821.94
2023-04-24T10:04:20.465Z,96819.84
2023-04-24T10:06:47.563Z,96820.88
2023-04-24T10:09:14.789Z,96826.66
2023-04-24T10:11:42.890Z,96822.34
2023-04-24T10:14:11.932Z,96831.44
2023-04-24T10:16:38.751Z,96833.19
2023-04-24T10:19:05.414Z,96838.38
2023-04-24T10:21:32.067Z,96833.94
2023-04-24T10:23:58.536Z,96836.38
2023-04-24T10:26:25.417Z,96836.72
2023-04-24T10:28:53.008Z,96833.84
2023-04-24T10:31:19.525Z,96845.22
2023-04-24T10:33:46.052Z,96838.56
2023-04-24T10:36:14.340Z,96842.84
2023-04-24T10:38:42.922Z,96846.97
2023-04-24T10:41:10.850Z,96845.66
2023-04-24T10:43:42.024Z,96846.56
2023-04-24T10:46:15.322Z,96846.75
2023-04-24T10:48:49.369Z,96841.22
2023-04-24T10:51:17.730Z,96838.09
2023-04-24T10:53:44.447Z,96839.34
2023-04-24T10:56:14.647Z,96843.44
2023-04-24T10:58:53.498Z,96847.84
2023-04-24T11:01:35.863Z,96859.03
2023-04-24T11:04:04.334Z,96865.47
2023-04-24T11:06:36.029Z,96863.13
2023-04-24T11:09:05.065Z,96863.34
2023-04-24T11:11:33.080Z,96870.59
2023-04-24T11:13:59.729Z,96881.53
2023-04-24T11:16:45.611Z,96878.97
2023-04-24T11:19:16.126Z,96884.41
2023-04-24T11:21:44.483Z,96879.81
2023-04-24T11:24:27.231Z,96883.03
2023-04-24T11:26:55.572Z,96876.59
2023-04-24T11:29:23.263Z,96896.16
2023-04-24T11:31:53.521Z,96878.66
2023-04-24T11:34:20.057Z,96909.56
2023-04-24T11:36:47.120Z,96903.06
2023-04-24T11:39:13.662Z,96906.91
2023-04-24T11:41:40.225Z,96893.16
2023-04-24T11:44:07.797Z,96912.63
2023-04-24T11:46:34.410Z,96914.03
2023-04-24T11:49:01.276Z,96925.97
2023-04-24T11:51:31.280Z,96919.44
2023-04-24T11:54:04.458Z,96935.38
2023-04-24T11:56:31.304Z,96930.16
2023-04-24T11:58:57.804Z,96933.63
2023-04-24T12:01:24.305Z,96942.88
2023-04-24T12:03:52.335Z,96952.63
2023-04-24T12:06:20.168Z,96948.06
2023-04-24T12:08:48.032Z,96948.06
2023-04-24T12:11:16.109Z,96957.03
2023-04-24T12:13:42.608Z,96953.41
2023-04-24T12:16:09.161Z,96953.78
2023-04-24T12:18:35.751Z,96961.63
2023-04-24T12:21:22.890Z,96955.69
2023-04-24T12:23:49.959Z,96968.09
2023-04-24T12:26:20.002Z,96977.72
2023-04-24T12:28:49.042Z,96979.53
2023-04-24T12:31:16.104Z,96980.97
2023-04-24T12:33:43.976Z,96991.91
2023-04-24T12:36:13.744Z,97002.66
2023-04-24T12:38:48.270Z,97002.97
2023-04-24T12:41:15.316Z,97009.97
2023-04-24T12:43:56.664Z,97016.97
2023-04-24T12:46:23.963Z,97007.59
2023-04-24T12:48:51.677Z,97019.06
2023-04-24T12:51:19.940Z,97026.56
2023-04-24T12:53:46.461Z,97032.13
2023-04-24T12:56:12.926Z,97032.81
2023-04-24T12:58:39.421Z,97032.53
2023-04-24T13:01:06.004Z,97033.59
2023-04-24T13:03:32.607Z,97034.66
2023-04-24T13:05:59.112Z,97039.72
2023-04-24T13:08:26.080Z,97046.28
2023-04-24T13:10:52.963Z,97053.66
2023-04-24T13:13:19.458Z,97063.34
2023-04-24T13:15:45.945Z,97058.13
2023-04-24T13:18:12.612Z,97055.38
2023-04-24T13:20:39.152Z,97057.28
2023-04-24T13:23:05.623Z,97064.19
2023-04-24T13:25:36.701Z,97073.25
2023-04-24T13:28:03.309Z,97072.91
2023-04-24T13:30:29.787Z,97073.13
2023-04-24T13:32:56.273Z,97083.72
2023-04-24T13:35:22.756Z,97093.00
2023-04-24T13:37:49.281Z,97092.91
2023-04-24T13:40:15.776Z,97091.78
2023-04-24T13:42:42.250Z,97085.41
2023-04-24T13:45:17.786Z,97089.19
2023-04-24T13:47:52.302Z,97095.22
2023-04-24T13:50:19.006Z,97096.66
2023-04-24T13:52:45.595Z,97094.03
2023-04-24T13:55:12.085Z,97109.44
2023-04-24T13:57:38.549Z,97108.13
2023-04-24T14:00:06.672Z,97108.66
2023-04-24T14:02:33.580Z,97113.44
2023-04-24T14:05:00.458Z,97113.84
2023-04-24T14:07:27.235Z,97130.09
2023-04-24T14:09:53.703Z,97116.06
2023-04-24T14:12:20.733Z,97121.88
2023-04-24T14:14:48.212Z,97119.72
2023-04-24T14:17:15.446Z,97142.88
2023-04-24T14:19:41.935Z,97129.50
2023-04-24T14:22:08.422Z,97132.00
2023-04-24T14:24:34.938Z,97124.34
2023-04-24T14:27:01.656Z,97144.03
2023-04-24T14:29:28.183Z,97137.88
2023-04-24T14:31:54.669Z,97141.13
2023-04-24T14:34:21.185Z,97143.03
2023-04-24T14:36:47.649Z,97138.56
2023-04-24T14:39:14.171Z,97140.09
2023-04-24T14:41:41.256Z,97134.78
2023-04-24T14:44:07.724Z,97152.09
2023-04-24T14:46:34.330Z,97145.44
2023-04-24T14:49:00.985Z,97144.69
2023-04-24T14:51:27.833Z,97148.91
2023-04-24T14:53:54.318Z,97157.47
2023-04-24T14:56:20.844Z,97167.69
2023-04-24T14:58:47.320Z,97168.16
2023-04-24T15:01:13.921Z,97182.31
2023-04-24T15:03:40.606Z,97175.63
2023-04-24T15:06:07.476Z,97179.91
2023-04-24T15:08:34.051Z,97175.31
2023-04-24T15:11:00.536Z,97188.66
2023-04-24T15:13:27.010Z,97194.16
2023-04-24T15:15:53.571Z,97187.41
2023-04-24T15:18:20.087Z,97181.63
2023-04-24T15:20:47.212Z,97194.41
2023-04-24T15:23:13.711Z,97183.00
2023-04-24T15:25:40.247Z,97189.06
2023-04-24T15:28:07.158Z,97188.50
2023-04-24T15:30:33.631Z,97197.97
2023-04-24T15:33:00.997Z,97188.25
2023-04-24T15:35:27.634Z,97194.56
2023-04-24T15:37:54.144Z,97200.53
2023-04-24T15:40:20.729Z,97190.56
2023-04-24T15:42:47.261Z,97185.22
2023-04-24T15:45:13.739Z,97189.47
2023-04-24T15:47:40.662Z,97201.09
2023-04-24T15:50:09.485Z,97205.88
2023-04-24T15:52:36.646Z,97205.28
2023-04-24T15:55:04.396Z,97206.44
2023-04-24T15:57:30.896Z,97201.31
2023-04-24T15:59:57.411Z,97202.66
2023-04-24T16:02:24.098Z,97195.75
2023-04-24T16:04:50.908Z,97200.84
2023-04-24T16:07:20.328Z,97211.53
2023-04-24T16:09:46.862Z,97211.06
2023-04-24T16:12:13.501Z,97210.28
2023-04-24T16:14:39.979Z,97214.06
2023-04-24T16:17:06.598Z,97209.56
2023-04-24T16:19:35.938Z,97211.31
2023-04-24T16:22:03.213Z,97220.53
2023-04-24T16:24:29.776Z,97217.78
2023-04-24T16:26:56.696Z,97217.22
2023-04-24T16:29:23.250Z,97210.00
2023-04-24T16:31:49.896Z,97220.94
2023-04-24T16:34:16.472Z,97228.88
2023-04-24T16:36:42.964Z,97224.78
2023-04-24T16:39:09.840Z,97225.00
2023-04-24T16:41:36.324Z,97232.03
2023-04-24T16:44:02.785Z,97237.31
2023-04-24T16:46:29.273Z,97237.38
2023-04-24T16:48:56.718Z,97250.44
2023-04-24T16:51:23.188Z,97243.75
2023-04-24T16:53:49.756Z,97243.41
2023-04-24T16:56:16.222Z,97233.97
2023-04-24T16:58:42.755Z,97243.44
2023-04-24T17:01:09.277Z,97246.03
2023-04-24T17:03:36.014Z,97241.72
2023-04-24T17:06:03.105Z,97246.94
2023-04-24T17:08:30.626Z,97244.25
2023-04-24T17:10:57.098Z,97250.44
2023-04-24T17:13:23.611Z,97257.06
2023-04-24T17:15:50.111Z,97251.91
2023-04-24T17:18:17.685Z,97258.59
2023-04-24T17:20:44.385Z,97247.00
2023-04-24T17:23:13.503Z,97257.78
2023-04-24T17:25:40.092Z,97258.88
2023-04-24T17:28:25.249Z,97258.69
2023-04-24T17:30:51.753Z,97261.34
2023-04-24T17:33:18.225Z,97253.25
2023-04-24T17:35:44.709Z,97263.22
2023-04-24T17:38:11.182Z,97253.09
2023-04-24T17:40:38.434Z,97259.84
2023-04-24T17:43:05.059Z,97260.84
2023-04-24T17:45:32.034Z,97269.13
2023-04-24T17:47:58.635Z,97288.81
2023-04-24T17:50:25.286Z,97285.00
2023-04-24T17:52:51.782Z,97294.94
2023-04-24T17:55:18.302Z,97287.66
2023-04-24T17:57:44.786Z,97286.31
2023-04-24T18:00:11.720Z,97285.78
2023-04-24T18:02:38.839Z,97296.03
2023-04-24T18:05:05.539Z,97287.22
2023-04-24T18:07:32.083Z,97286.66
2023-04-24T18:09:58.549Z,97284.56
2023-04-24T18:12:25.072Z,97291.84
2023-04-24T18:14:54.893Z,97289.59
2023-04-24T18:17:29.448Z,97294.38
2023-04-24T18:19:56.197Z,97299.22
2023-04-24T18:22:22.761Z,97299.31
2023-04-24T18:24:49.314Z,97302.22
2023-04-24T18:27:15.800Z,97301.16
2023-04-24T18:29:42.270Z,97300.25
2023-04-24T18:32:08.760Z,97299.63
2023-04-24T18:34:35.294Z,97304.84
2023-04-24T18:37:02.048Z,97298.50
2023-04-24T18:39:28.503Z,97307.56
2023-04-24T18:41:54.969Z,97308.38
2023-04-24T18:44:21.467Z,97320.84
2023-04-24T18:46:47.994Z,97317.50
2023-04-24T18:49:14.503Z,97311.75
2023-04-24T18:51:52.467Z,97310.41
2023-04-24T18:54:20.258Z,97320.16
2023-04-24T18:56:46.740Z,97322.06
2023-04-24T18:59:13.209Z,97327.63
2023-04-24T19:01:39.939Z,97322.78
2023-04-24T19:04:06.604Z,97327.97
2023-04-24T19:06:33.149Z,97340.25
2023-04-24T19:08:59.713Z,97336.44
2023-04-24T19:11:26.442Z,97331.75
2023-04-24T19:13:56.176Z,97330.72
2023-04-24T19:16:29.179Z,97337.38
2023-04-24T19:18:55.937Z,97348.16
2023-04-24T19:21:23.211Z,97351.94
2023-04-24T19:23:50.540Z,97348.78
2023-04-24T19:26:17.089Z,97360.56
2023-04-24T19:28:43.611Z,97372.16
2023-04-24T19:31:11.467Z,97361.56
2023-04-24T19:33:37.949Z,97357.31
2023-04-24T19:36:05.548Z,97370.84
2023-04-24T19:38:32.330Z,97358.91
2023-04-24T19:40:58.801Z,97356.56
2023-04-24T19:43:25.408Z,97356.03
2023-04-24T19:45:51.975Z,97349.31
2023-04-24T19:48:18.549Z,97349.56
2023-04-24T19:50:45.034Z,97354.28
2023-04-24T19:53:13.391Z,97348.53
2023-04-24T19:55:39.857Z,97343.59
2023-04-24T19:58:06.346Z,97340.03
2023-04-24T20:00:35.099Z,97348.97
2023-04-24T20:03:02.874Z,97338.47
2023-04-24T20:05:29.635Z,97337.84
2023-04-24T20:07:56.341Z,97349.69
2023-04-24T20:10:22.827Z,97337.22
2023-04-24T20:12:49.444Z,97335.91
2023-04-24T20:15:16.050Z,97335.91
2023-04-24T20:17:42.537Z,97329.75
2023-04-24T20:20:11.719Z,97340.72
2023-04-24T20:22:41.385Z,97340.94
2023-04-24T20:25:08.684Z,97339.56
2023-04-24T20:27:35.556Z,97346.78
2023-04-24T20:30:02.154Z,97339.78
2023-04-24T20:32:28.967Z,97343.94
2023-04-24T20:34:55.478Z,97334.97
2023-04-24T20:37:21.977Z,97345.78
2023-04-24T20:39:50.253Z,97332.69
2023-04-24T20:42:16.734Z,97343.53
2023-04-24T20:44:45.491Z,97344.09
2023-04-24T20:47:12.496Z,97345.25
2023-04-24T20:49:39.003Z,97344.22
2023-04-24T20:52:07.941Z,97347.09
2023-04-24T20:54:34.782Z,97353.16
2023-04-24T20:57:01.884Z,97353.06
2023-04-24T20:59:29.839Z,97354.66
2023-04-24T21:01:56.354Z,97360.97
2023-04-24T21:04:22.940Z,97355.44
2023-04-24T21:06:49.433Z,97351.34
2023-04-24T21:09:16.361Z,97362.69
2023-04-24T21:11:42.865Z,97362.59
2023-04-24T21:14:10.464Z,97363.97
2023-04-24T21:16:37.222Z,97357.78
2023-04-24T21:19:03.767Z,97363.97
2023-04-24T21:21:30.949Z,97364.66
2023-04-24T21:23:57.444Z,97356.44
2023-04-24T21:26:24.204Z,97359.25
2023-04-24T21:28:51.378Z,97352.72
2023-04-24T21:31:19.964Z,97354.31
2023-04-24T21:33:46.656Z,97348.34
2023-04-24T21:36:13.376Z,97346.06
2023-04-24T21:38:40.214Z,97350.53
2023-04-24T21:41:06.817Z,97357.81
2023-04-24T21:43:43.900Z,97352.19
2023-04-24T21:46:11.452Z,97355.41
2023-04-24T21:48:38.325Z,97351.84
2023-04-24T21:51:04.789Z,97357.84
2023-04-24T21:53:31.285Z,97359.78
2023-04-24T21:55:57.752Z,97362.53
2023-04-24T21:58:24.343Z,97357.81
2023-04-24T22:00:50.854Z,97349.19
2023-04-24T22:03:17.475Z,97350.22
2023-04-24T22:05:44.060Z,97351.16
2023-04-24T22:08:10.511Z,97340.25
2023-04-24T22:10:37.215Z,97352.41
2023-04-24T22:13:03.673Z,97343.81
2023-04-24T22:15:31.024Z,97354.81
2023-04-24T22:17:57.902Z,97344.38
2023-04-24T22:20:25.813Z,97346.91
2023-04-24T22:22:52.495Z,97349.66
2023-04-24T22:25:18.996Z,97352.88
2023-04-24T22:27:45.453Z,97349.56
2023-04-24T22:30:12.240Z,97344.16
2023-04-24T22:32:39.150Z,97342.53
2023-04-24T22:35:06.202Z,97346.00
2023-04-24T22:37:32.894Z,97353.66
2023-04-24T22:40:02.414Z,97354.59
2023-04-24T22:42:29.132Z,97353.34
2023-04-24T22:44:55.658Z,97351.81
2023-04-24T22:47:22.227Z,97344.38
2023-04-24T22:49:48.729Z,97354.03
2023-04-24T22:52:15.582Z,97353.44
2023-04-24T22:54:42.391Z,97363.75
2023-04-24T22:57:08.868Z,97345.19
2023-04-24T22:59:35.368Z,97344.50
2023-04-24T23:02:01.972Z,97354.63
2023-04-24T23:04:29.368Z,97349.78
2023-04-24T23:06:56.464Z,97348.75
2023-04-24T23:09:22.938Z,97345.31
2023-04-24T23:11:49.410Z,97343.25
2023-04-24T23:14:16.792Z,97352.53
2023-04-24T23:16:46.244Z,97346.91
2023-04-24T23:19:12.942Z,97344.25
2023-04-24T23:21:39.413Z,97347.25
2023-04-24T23:24:06.419Z,97345.88
2023-04-24T23:26:34.382Z,97349.44
2023-04-24T23:29:00.900Z,97348.63
2023-04-24T23:31:27.385Z,97346.13
2023-04-24T23:33:53.900Z,97349.34
2023-04-24T23:36:20.708Z,97339.09
2023-04-24T23:38:50.617Z,97337.28
2023-04-24T23:41:17.590Z,97342.56
2023-04-24T23:43:44.124Z,97336.59
2023-04-24T23:46:10.914Z,97326.84
2023-04-24T23:48:37.440Z,97328.00
2023-04-24T23:51:03.962Z,97328.47
2023-04-24T23:53:30.702Z,97331.66
2023-04-24T23:55:57.183Z,97328.91
2023-04-24T23:58:23.655Z,97325.25
